createdAt,value
2022-10-31T09:08:52.134Z,59.50
2022-10-31T09:11:18.830Z,60.67
2022-10-31T09:14:24.037Z,54.37
2022-10-31T09:17:18.140Z,50.98
2022-10-31T09:20:04.861Z,49.32
2022-10-31T09:22:34.492Z,50.15
2022-10-31T09:25:01.312Z,53.47
2022-10-31T09:27:28.174Z,57.80
2022-10-31T09:29:56.664Z,62.21
2022-10-31T09:32:23.337Z,64.97
2022-10-31T09:34:50.605Z,66.03
2022-10-31T09:37:20.206Z,65.62
2022-10-31T09:39:46.723Z,67.60
2022-10-31T09:42:44.874Z,67.44
2022-10-31T09:45:34.789Z,66.00
2022-10-31T09:48:28.290Z,64.89
2022-10-31T09:51:26.251Z,63.63
2022-10-31T09:54:10.025Z,63.84
2022-10-31T09:56:38.849Z,68.78
2022-10-31T09:59:13.356Z,65.33
2022-10-31T10:01:43.046Z,65.90
2022-10-31T10:04:35.394Z,65.18
2022-10-31T10:07:34.148Z,65.06
2022-10-31T10:10:32.146Z,64.93
2022-10-31T10:13:43.626Z,66.02
2022-10-31T10:16:24.217Z,65.30
2022-10-31T10:19:06.874Z,66.75
2022-10-31T10:21:49.977Z,65.11
2022-10-31T10:24:33.805Z,65.42
2022-10-31T10:27:12.491Z,64.66
2022-10-31T10:29:45.622Z,65.72
2022-10-31T10:32:30.325Z,68.06
2022-10-31T10:35:22.115Z,66.32
2022-10-31T10:37:53.105Z,62.62
2022-10-31T10:40:25.983Z,61.40
2022-10-31T10:43:22.804Z,58.50
2022-10-31T10:46:23.471Z,61.68
2022-10-31T10:48:55.995Z,58.68
2022-10-31T10:51:54.744Z,56.66
2022-10-31T10:54:42.422Z,52.65
2022-10-31T10:57:38.263Z,53.35
2022-10-31T11:00:37.816Z,48.27
2022-10-31T11:03:06.423Z,49.05
2022-10-31T11:05:50.076Z,48.28
2022-10-31T11:08:27.924Z,46.10
2022-10-31T11:11:05.133Z,42.71
2022-10-31T11:13:33.845Z,42.06
2022-10-31T11:16:05.646Z,44.30
2022-10-31T11:18:40.932Z,42.55
2022-10-31T11:21:22.868Z,41.66
2022-10-31T11:23:49.416Z,44.87
2022-10-31T11:26:22.351Z,43.20
2022-10-31T11:28:59.567Z,44.81
2022-10-31T11:31:28.100Z,45.53
2022-10-31T11:34:00.864Z,42.97
2022-10-31T11:36:33.441Z,43.38
2022-10-31T11:39:02.090Z,43.53
2022-10-31T11:41:35.758Z,45.36
2022-10-31T11:44:17.749Z,44.39
2022-10-31T11:46:55.660Z,46.65
2022-10-31T11:49:41.749Z,47.51
2022-10-31T11:52:15.972Z,46.73
2022-10-31T11:54:46.401Z,48.40
2022-10-31T11:57:34.254Z,53.70
2022-10-31T12:00:04.561Z,53.17
2022-10-31T12:02:38.770Z,54.01
2022-10-31T12:05:20.990Z,53.66
2022-10-31T12:07:49.980Z,56.20
2022-10-31T12:10:19.995Z,56.56
2022-10-31T12:13:27.555Z,57.56
2022-10-31T12:16:03.293Z,57.58
2022-10-31T12:18:43.102Z,59.37
2022-10-31T12:21:18.785Z,57.18
2022-10-31T12:23:55.837Z,59.53
2022-10-31T12:26:37.595Z,58.82
2022-10-31T12:29:23.026Z,60.53
2022-10-31T12:32:14.525Z,61.98
2022-10-31T12:34:56.989Z,58.42
2022-10-31T12:37:47.266Z,57.33
2022-10-31T12:40:42.011Z,60.76
2022-10-31T12:43:27.371Z,62.71
2022-10-31T12:45:56.923Z,60.87
2022-10-31T12:49:00.097Z,58.93
2022-10-31T12:52:12.750Z,59.59
2022-10-31T12:54:59.125Z,59.93
2022-10-31T12:57:44.062Z,63.42
2022-10-31T13:00:26.625Z,64.39
2022-10-31T13:03:29.572Z,67.54
2022-10-31T13:06:03.231Z,63.39
2022-10-31T13:08:54.127Z,60.52
2022-10-31T13:12:37.385Z,62.62
2022-10-31T13:15:23.476Z,63.92
2022-10-31T13:17:55.401Z,66.31
2022-10-31T13:20:31.472Z,69.34
2022-10-31T13:23:17.922Z,69.13
2022-10-31T13:25:56.677Z,71.49
2022-10-31T13:28:52.804Z,68.57
2022-10-31T13:31:19.346Z,65.43
2022-10-31T13:33:50.875Z,68.72
2022-10-31T13:36:25.840Z,70.01
2022-10-31T13:39:01.141Z,69.19
2022-10-31T13:41:54.255Z,69.36
2022-10-31T13:44:35.853Z,68.41
2022-10-31T13:47:04.944Z,69.08
2022-10-31T13:49:31.536Z,70.69
2022-10-31T13:52:15.702Z,68.93
2022-10-31T13:54:45.355Z,75.41
2022-10-31T13:57:17.800Z,74.36
2022-10-31T13:59:50.887Z,72.39
2022-10-31T14:02:21.440Z,75.69
2022-10-31T14:04:50.044Z,78.81
2022-10-31T14:07:21.994Z,75.97
2022-10-31T14:09:48.486Z,78.30
2022-10-31T14:12:29.931Z,75.95
2022-10-31T14:15:01.036Z,77.94
2022-10-31T14:17:33.884Z,78.79
2022-10-31T14:20:04.387Z,79.77
2022-10-31T14:22:37.408Z,80.21
2022-10-31T14:25:28.592Z,81.53
2022-10-31T14:27:55.562Z,82.62
2022-10-31T14:30:27.239Z,81.71
2022-10-31T14:32:58.304Z,82.91
2022-10-31T14:35:29.937Z,82.79
2022-10-31T14:38:09.741Z,83.68
2022-10-31T14:40:45.445Z,83.25
2022-10-31T14:43:30.230Z,85.91
2022-10-31T14:46:17.824Z,85.34
2022-10-31T14:49:13.708Z,87.26
2022-10-31T14:51:45.196Z,87.25
2022-10-31T14:54:36.944Z,87.90
2022-10-31T14:57:15.644Z,88.72
2022-10-31T14:59:50.252Z,89.19
2022-10-31T15:02:27.753Z,91.05
2022-10-31T15:04:56.559Z,92.11
2022-10-31T15:07:26.590Z,93.54
2022-10-31T15:10:01.725Z,94.61
2022-10-31T15:12:38.646Z,95.17
2022-10-31T15:15:16.098Z,97.24
2022-10-31T15:17:46.658Z,98.23
2022-10-31T15:20:20.264Z,99.29
2022-10-31T15:22:47.141Z,100.00
2022-10-31T15:25:19.860Z,100.00
2022-10-31T15:27:47.887Z,100.00
2022-10-31T15:30:32.477Z,100.00
2022-10-31T15:32:59.433Z,100.00
2022-10-31T15:35:31.027Z,100.00
2022-10-31T15:37:59.827Z,100.00
2022-10-31T15:40:29.069Z,100.00
2022-10-31T15:43:02.661Z,100.00
2022-10-31T15:45:31.779Z,100.00
2022-10-31T15:48:02.427Z,100.00
2022-10-31T15:50:41.194Z,100.00
2022-10-31T15:53:18.733Z,100.00
2022-10-31T15:55:58.733Z,100.00
2022-10-31T15:58:26.688Z,100.00
2022-10-31T16:01:07.140Z,100.00
2022-10-31T16:03:34.868Z,100.00
2022-10-31T16:06:04.860Z,100.00
2022-10-31T16:08:31.424Z,100.00
2022-10-31T16:11:00.776Z,100.00
2022-10-31T16:13:31.851Z,100.00
2022-10-31T16:16:32.813Z,100.00
2022-10-31T16:18:50.242Z,100.00
2022-10-31T16:21:24.784Z,100.00
2022-10-31T16:23:58.158Z,100.00
2022-10-31T16:26:25.925Z,100.00
2022-10-31T16:29:03.432Z,100.00
2022-10-31T16:31:38.612Z,100.00
2022-10-31T16:34:26.838Z,100.00
2022-10-31T16:36:53.889Z,100.00
2022-10-31T16:39:23.018Z,100.00
2022-10-31T16:41:52.979Z,100.00
2022-10-31T16:44:25.301Z,100.00
2022-10-31T16:47:06.999Z,100.00
2022-10-31T16:49:33.534Z,100.00
2022-10-31T16:52:00.023Z,100.00
2022-10-31T16:54:26.536Z,100.00
2022-10-31T16:56:53.035Z,100.00
2022-10-31T16:59:20.018Z,100.00
2022-10-31T17:01:49.818Z,100.00
2022-10-31T17:04:16.732Z,100.00
2022-10-31T17:06:43.284Z,100.00
2022-10-31T17:09:10.010Z,100.00
2022-10-31T17:11:39.062Z,100.00
2022-10-31T17:14:05.832Z,100.00
2022-10-31T17:16:32.394Z,100.00
2022-10-31T17:18:59.004Z,100.00
2022-10-31T17:21:27.994Z,100.00
2022-10-31T17:23:54.784Z,100.00
2022-10-31T17:26:21.533Z,100.00
2022-10-31T17:28:48.126Z,100.00
2022-10-31T17:31:23.578Z,100.00
2022-10-31T17:33:50.753Z,100.00
2022-10-31T17:36:17.271Z,100.00
2022-10-31T17:38:43.818Z,100.00
2022-10-31T17:41:13.105Z,100.00
2022-10-31T17:43:39.959Z,100.00
2022-10-31T17:46:07.712Z,100.00
2022-10-31T17:48:36.208Z,100.00
2022-10-31T17:51:05.104Z,100.00
2022-10-31T17:53:33.663Z,100.00
2022-10-31T17:56:05.387Z,100.00
2022-10-31T17:58:32.316Z,100.00
2022-10-31T18:00:59.791Z,100.00
2022-10-31T18:03:27.350Z,100.00
2022-10-31T18:05:57.858Z,100.00
2022-10-31T18:08:28.234Z,100.00
2022-10-31T18:10:56.164Z,100.00
2022-10-31T18:13:28.045Z,100.00
2022-10-31T18:15:59.334Z,100.00
2022-10-31T18:18:26.349Z,100.00
2022-10-31T18:21:01.904Z,100.00
2022-10-31T18:23:28.804Z,100.00
2022-10-31T18:26:00.078Z,100.00
2022-10-31T18:28:30.381Z,100.00
2022-10-31T18:31:06.497Z,100.00
2022-10-31T18:33:35.252Z,100.00
2022-10-31T18:36:17.924Z,100.00
2022-10-31T18:38:45.089Z,100.00
2022-10-31T18:41:17.222Z,100.00
2022-10-31T18:43:51.188Z,100.00
2022-10-31T18:46:24.113Z,100.00
2022-10-31T18:49:01.099Z,100.00
2022-10-31T18:51:33.778Z,100.00
2022-10-31T18:54:09.414Z,100.00
2022-10-31T18:56:39.518Z,100.00
2022-10-31T18:59:07.300Z,100.00
2022-10-31T19:01:37.117Z,100.00
2022-10-31T19:04:04.003Z,100.00
2022-10-31T19:06:30.966Z,100.00
2022-10-31T19:09:09.055Z,100.00
2022-10-31T19:11:39.375Z,100.00
2022-10-31T19:14:08.377Z,100.00
2022-10-31T19:16:35.339Z,100.00
2022-10-31T19:19:02.189Z,100.00
2022-10-31T19:21:31.144Z,100.00
2022-10-31T19:23:58.999Z,100.00
2022-10-31T19:26:26.464Z,100.00
2022-10-31T19:28:55.862Z,100.00
2022-10-31T19:31:25.597Z,100.00
2022-10-31T19:33:57.973Z,100.00
2022-10-31T19:36:30.900Z,100.00
2022-10-31T19:39:07.240Z,100.00
2022-10-31T19:41:35.383Z,100.00
2022-10-31T19:44:48.504Z,100.00
2022-10-31T19:50:20.637Z,100.00
2022-10-31T19:53:11.607Z,100.00
2022-10-31T19:55:51.579Z,100.00
2022-10-31T19:58:26.001Z,100.00
2022-10-31T20:00:54.496Z,100.00
2022-10-31T20:03:27.317Z,100.00
2022-10-31T20:05:54.485Z,100.00
2022-10-31T20:08:28.887Z,100.00
2022-10-31T20:11:02.257Z,100.00
2022-10-31T20:13:37.091Z,100.00
2022-10-31T20:16:07.538Z,100.00
2022-10-31T20:18:35.931Z,100.00
2022-10-31T20:21:09.842Z,100.00
2022-10-31T20:23:38.085Z,100.00
2022-10-31T20:26:10.493Z,100.00
2022-10-31T20:28:43.692Z,100.00
2022-10-31T20:31:23.989Z,100.00
2022-10-31T20:33:54.674Z,100.00
2022-10-31T20:36:34.743Z,100.00
2022-10-31T20:39:01.573Z,100.00
2022-10-31T20:41:28.530Z,100.00
2022-10-31T20:43:55.577Z,100.00
2022-10-31T20:46:27.481Z,100.00
2022-10-31T20:49:08.902Z,100.00
2022-10-31T20:51:50.911Z,100.00
2022-10-31T20:54:20.129Z,100.00
2022-10-31T20:56:46.804Z,100.00
2022-10-31T20:59:15.170Z,100.00
2022-10-31T21:01:41.840Z,100.00
2022-10-31T21:04:12.055Z,100.00
2022-10-31T21:06:39.264Z,100.00
2022-10-31T21:09:07.351Z,100.00
2022-10-31T21:11:34.071Z,100.00
2022-10-31T21:14:00.856Z,100.00
2022-10-31T21:16:31.033Z,100.00
2022-10-31T21:19:00.141Z,100.00
2022-10-31T21:21:32.377Z,100.00
2022-10-31T21:24:04.380Z,100.00
2022-10-31T21:26:34.675Z,100.00
2022-10-31T21:29:02.181Z,100.00
2022-10-31T21:31:30.692Z,100.00
2022-10-31T21:33:57.839Z,100.00
2022-10-31T21:36:26.363Z,100.00
2022-10-31T21:38:54.222Z,100.00
2022-10-31T21:41:21.823Z,100.00
2022-10-31T21:43:50.233Z,100.00
2022-10-31T21:46:20.091Z,100.00
2022-10-31T21:48:47.646Z,100.00
2022-10-31T21:51:17.223Z,100.00
2022-10-31T21:54:02.679Z,100.00
2022-10-31T21:56:29.788Z,100.00
2022-10-31T21:58:56.477Z,100.00
2022-10-31T22:01:25.959Z,100.00
2022-10-31T22:03:52.640Z,100.00
2022-10-31T22:06:19.492Z,100.00
2022-10-31T22:08:46.113Z,100.00
2022-10-31T22:11:15.390Z,100.00
2022-10-31T22:13:46.779Z,100.00
2022-10-31T22:16:26.012Z,100.00
2022-10-31T22:18:54.352Z,100.00
2022-10-31T22:21:23.978Z,100.00
2022-10-31T22:23:55.572Z,100.00
2022-10-31T22:26:22.812Z,100.00
2022-10-31T22:28:56.099Z,100.00
2022-10-31T22:31:24.256Z,100.00
2022-10-31T22:33:51.608Z,100.00
2022-10-31T22:36:21.094Z,100.00
2022-10-31T22:38:53.239Z,100.00
2022-10-31T22:41:23.992Z,100.00
2022-10-31T22:43:50.820Z,100.00
2022-10-31T22:46:25.922Z,100.00
2022-10-31T22:48:55.707Z,100.00
2022-10-31T22:51:25.191Z,100.00
2022-10-31T22:53:52.668Z,100.00
2022-10-31T22:56:21.509Z,100.00
2022-10-31T22:58:48.577Z,100.00
2022-10-31T23:01:21.527Z,100.00
2022-10-31T23:03:48.592Z,100.00
2022-10-31T23:06:18.093Z,100.00
2022-10-31T23:08:45.439Z,100.00
2022-10-31T23:11:16.407Z,100.00
2022-10-31T23:14:03.671Z,100.00
2022-10-31T23:16:30.886Z,100.00
2022-10-31T23:18:57.625Z,100.00
2022-10-31T23:21:55.074Z,100.00
2022-10-31T23:24:37.744Z,100.00
2022-10-31T23:27:09.212Z,100.00
2022-10-31T23:29:37.548Z,100.00
2022-10-31T23:32:06.461Z,100.00
2022-10-31T23:34:33.236Z,100.00
2022-10-31T23:36:59.861Z,100.00
2022-10-31T23:39:26.538Z,100.00
2022-10-31T23:41:53.147Z,100.00
2022-10-31T23:44:19.889Z,100.00
2022-10-31T23:46:46.479Z,100.00
2022-10-31T23:49:13.177Z,100.00
2022-10-31T23:51:40.211Z,100.00
2022-10-31T23:54:07.309Z,100.00
2022-10-31T23:56:33.897Z,100.00
2022-10-31T23:59:00.667Z,100.00
